Data for 10/02/2013

Time Sea-Level Adjusted Pressure Absolute Pressure Temperature Relative Humidity Dew Point   
(mb) (inHg) (mb) (inHg) (C) (F) (%) (C) (F)
00:05 1019 30.09 848 25.04 5.8 42.4 80 2.6 36.7
00:10 1019 30.09 848 25.04 5.7 42.3 78 2.2 35.9
00:15 1019 30.09 848 25.04 5.6 42.1 79 2.3 36.1
00:20 1019 30.09 848 25.04 5.6 42 79 2.1 35.9
00:25 1019 30.09 848 25.04 5.5 42 79 2.2 35.9
00:30 1019 30.09 848 25.04 5.4 41.8 80 2.2 36
00:35 1019 30.09 848 25.04 5.4 41.8 80 2.3 36.1
00:40 1019 30.09 848 25.04 5.5 41.9 79 2.2 35.9
00:45 1019 30.09 848 25.04 5.4 41.7 80 2.2 36
00:50 1019 30.09 848 25.04 5.3 41.6 82 2.4 36.4
00:55 1019 30.09 849 25.07 5.3 41.5 82 2.4 36.4
01:00 1019 30.09 848 25.04 5.3 41.6 82 2.4 36.4
01:05 1019 30.09 849 25.07 5.2 41.4 80 2.1 35.7
01:10 1019 30.09 849 25.07 5.1 41.3 79 1.8 35.3
01:15 1020 30.12 849 25.07 5.1 41.2 80 1.9 35.4
01:20 1020 30.12 849 25.07 5.1 41.3 80 2 35.7
01:25 1020 30.12 849 25.07 5.1 41.2 80 2 35.6
01:30 1020 30.12 849 25.07 5.1 41.3 81 2.1 35.7
01:35 1020 30.12 849 25.07 5.2 41.4 80 2.1 35.8
01:40 1020 30.12 849 25.07 5.2 41.3 78 1.7 35.1
01:45 1020 30.12 849 25.07 5.2 41.4 79 2 35.5
01:50 1020 30.12 849 25.07 5.1 41.3 81 2.2 36
01:55 1020 30.12 849 25.07 5.2 41.3 82 2.3 36.1
02:00 1020 30.12 849 25.07 5 41.1 82 2.1 35.9
02:05 1020 30.12 849 25.07 5 41 81 2 35.6
02:10 1020 30.12 849 25.07 4.9 40.8 82 2.1 35.8
02:15 1020 30.12 849 25.07 4.8 40.7 84 2.3 36.2
02:20 1020 30.12 849 25.07 4.7 40.4 83 2 35.7
02:25 1020 30.12 849 25.07 4.7 40.4 83 2.1 35.8
02:30 1020 30.12 849 25.07 4.6 40.2 83 2 35.5
02:35 1020 30.12 849 25.07 4.5 40.1 84 2 35.5
02:40 1020 30.12 849 25.07 4.5 40.1 83 1.8 35.3
02:45 1020 30.12 849 25.07 4.5 40 83 1.8 35.2
02:50 1020 30.12 849 25.07 4.3 39.7 84 1.8 35.2
02:55 1020 30.12 849 25.07 4.1 39.3 85 1.8 35.3
03:00 1020 30.12 849 25.07 4 39.2 85 1.7 35.1
03:05 1020 30.12 849 25.07 3.9 39 86 1.8 35.2
03:10 1020 30.12 849 25.07 3.7 38.7 86 1.7 35
03:15 1020 30.12 849 25.07 3.6 38.5 86 1.6 34.8
03:20 1020 30.12 849 25.07 3.6 38.6 86 1.6 34.8
03:25 1020 30.12 849 25.07 3.6 38.5 85 1.4 34.4
03:30 1020 30.12 849 25.07 3.7 38.6 85 1.4 34.5
03:35 1020 30.12 849 25.07 3.6 38.5 85 1.4 34.5
03:40 1020 30.12 849 25.07 3.4 38.1 87 1.5 34.7
03:45 1020 30.12 849 25.07 3.2 37.7 88 1.4 34.5
03:50 1020 30.12 849 25.07 3.1 37.5 88 1.3 34.3
03:55 1020 30.12 849 25.07 3.1 37.6 87 1.2 34.1
04:00 1020 30.12 849 25.07 3.1 37.6 87 1.1 34
04:05 1020 30.12 849 25.07 3 37.4 87 1.1 34
04:10 1020 30.12 849 25.07 3 37.3 87 1 33.8
04:15 1020 30.12 849 25.07 2.9 37.2 87 1 33.7
04:20 1020 30.12 849 25.07 3 37.3 87 1 33.8
04:25 1020 30.12 849 25.07 2.9 37.2 87 1 33.7
04:30 1020 30.12 849 25.07 2.8 37.1 87 0.9 33.6
04:35 1020 30.12 849 25.07 2.8 37 87 0.9 33.6
04:40 1020 30.12 849 25.07 2.7 36.8 88 0.9 33.6
04:45 1020 30.12 849 25.07 2.6 36.7 88 0.8 33.5
04:50 1020 30.12 849 25.07 2.5 36.5 88 0.8 33.4
04:55 1020 30.12 849 25.07 2.2 36 89 0.6 33.1
05:00 1020 30.12 849 25.07 2.2 35.9 89 0.6 33
05:05 1020 30.12 849 25.07 2.2 36 89 0.5 32.9
05:10 1020 30.12 849 25.07 2.1 35.8 89 0.5 33
05:15 1020 30.12 849 25.07 2.3 36.1 87 0.4 32.7
05:20 1020 30.12 849 25.07 2.4 36.2 87 0.4 32.6
05:25 1020 30.12 849 25.07 2.5 36.5 86 0.3 32.6
05:30 1020 30.12 849 25.07 2.6 36.6 85 0.3 32.5
05:35 1020 30.12 849 25.07 2.1 35.8 87 0.2 32.3
05:40 1020 30.12 849 25.07 1.9 35.4 88 0.1 32.1
05:45 1020 30.12 850 25.1 2.3 36.2 86 0.2 32.3
05:50 1020 30.12 850 25.1 2.1 35.8 87 0.1 32.2
05:55 1020 30.12 850 25.1 1.9 35.5 88 0.1 32.2
06:00 1021 30.15 850 25.1 1.8 35.3 88 -0 32
06:05 1021 30.15 850 25.1 1.7 35.1 88 -0.1 31.9
06:10 1021 30.15 850 25.1 1.9 35.4 87 -0.1 31.8
06:15 1021 30.15 850 25.1 1.9 35.4 87 -0.1 31.8
06:20 1021 30.15 850 25.1 1.9 35.4 87 -0.1 31.8
06:25 1021 30.15 850 25.1 2 35.5 87 -0 31.9
06:30 1021 30.15 850 25.1 2 35.5 87 0.1 32.1
06:35 1021 30.15 850 25.1 1.9 35.4 87 0 32
06:40 1021 30.15 850 25.1 2 35.6 87 0.1 32.1
06:45 1021 30.15 850 25.1 2.2 36 88 0.4 32.6
06:50 1021 30.15 850 25.1 2 35.5 88 0.2 32.3
06:55 1021 30.15 850 25.1 1.8 35.3 88 0 32.1
07:00 1021 30.15 850 25.1 1.8 35.3 88 0.1 32.2
07:05 1021 30.15 850 25.1 2 35.5 88 0.2 32.4
07:10 1021 30.15 850 25.1 2 35.6 89 0.3 32.6
07:15 1021 30.15 850 25.1 2 35.6 89 0.4 32.7
07:20 1021 30.15 850 25.1 2 35.6 90 0.5 32.9
07:25 1021 30.15 850 25.1 2.1 35.9 89 0.6 33
07:30 1021 30.15 850 25.1 2.3 36.2 89 0.7 33.3
07:35 1021 30.15 850 25.1 2.4 36.3 89 0.8 33.4
07:40 1021 30.15 850 25.1 2.5 36.5 89 0.9 33.6
07:45 1021 30.15 850 25.1 2.7 36.9 89 1 33.8
07:50 1021 30.15 850 25.1 3.1 37.6 88 1.2 34.2
07:55 1021 30.15 850 25.1 3.5 38.3 86 1.3 34.4
08:00 1021 30.15 850 25.1 3.8 38.9 84 1.3 34.4
08:05 1021 30.15 850 25.1 3.9 39 83 1.3 34.3
08:10 1021 30.15 850 25.1 4.1 39.4 79 0.9 33.5
08:15 1021 30.15 850 25.1 4.2 39.5 79 0.9 33.6
08:20 1021 30.15 850 25.1 4.1 39.4 80 0.9 33.7
08:25 1021 30.15 850 25.1 4.3 39.7 78 0.9 33.6
08:30 1021 30.15 850 25.1 4.5 40 78 0.9 33.7
08:35 1021 30.15 850 25.1 4.4 40 80 1.2 34.2
08:40 1021 30.15 850 25.1 4.5 40.1 78 1 33.9
08:45 1021 30.15 850 25.1 4.8 40.6 78 1.3 34.3
08:50 1021 30.15 850 25.1 5.1 41.2 75 1 33.8
08:55 1021 30.15 850 25.1 5.3 41.6 76 1.4 34.5
09:00 1021 30.15 850 25.1 5.4 41.8 76 1.5 34.7
09:05 1021 30.15 850 25.1 5.7 42.2 72 1.1 33.9
09:10 1021 30.15 850 25.1 5.4 41.8 76 1.5 34.6
09:15 1021 30.15 850 25.1 5.4 41.6 74 1 33.9
09:20 1021 30.15 850 25.1 5.8 42.4 69 0.6 33.1
09:25 1021 30.15 850 25.1 6.6 43.8 69 1.3 34.4
09:30 1021 30.15 850 25.1 6.9 44.5 69 1.7 35.1
09:35 1021 30.15 850 25.1 6.7 44.1 67 1.1 34.1
09:40 1021 30.15 850 25.1 6.2 43.2 70 1.2 34.1
09:45 1021 30.15 850 25.1 6.1 42.9 68 0.5 33
09:50 1021 30.15 850 25.1 6.3 43.4 66 0.5 32.8
09:55 1021 30.15 850 25.1 6.7 44.1 63 0.1 32.3
10:00 1020 30.12 850 25.1 7.2 45 60 -0 31.9
10:05 1020 30.12 850 25.1 7.2 44.9 61 0.1 32.3
10:10 1020 30.12 850 25.1 7.2 45 60 -0 31.9
10:15 1020 30.12 849 25.07 7.8 46 52 -1.3 29.6
10:20 1020 30.12 849 25.07 8 46.3 53 -1.1 30
10:25 1020 30.12 849 25.07 7.7 45.8 56 -0.4 31.2
10:30 1020 30.12 849 25.07 7.8 46 54 -1 30.2
10:35 1020 30.12 849 25.07 8.5 47.2 53 -0.6 30.9
10:40 1020 30.12 849 25.07 8.4 47.1 51 -1 30.1
10:45 1020 30.12 849 25.07 8.2 46.8 50 -1.4 29.4
10:50 1020 30.12 849 25.07 8.4 47.2 50 -1.4 29.4
10:55 1020 30.12 849 25.07 8.9 47.9 50 -1.1 30
11:00 1020 30.12 849 25.07 9 48.3 50 -0.8 30.5
11:05 1020 30.12 849 25.07 9.2 48.6 48 -1.3 29.7
11:10 1020 30.12 849 25.07 8.9 48.1 50 -1 30.2
11:15 1020 30.12 849 25.07 9.2 48.5 49 -0.9 30.5
11:20 1020 30.12 849 25.07 9.4 49 47 -1.2 29.9
11:25 1020 30.12 849 25.07 9.4 49 48 -1.1 30
11:30 1019 30.09 849 25.07 9.3 48.7 47 -1.5 29.3
11:35 1019 30.09 849 25.07 9.6 49.3 46 -1.5 29.4
11:40 1019 30.09 849 25.07 8.9 48 49 -1.3 29.7
11:45 1019 30.09 848 25.04 9.2 48.5 46 -1.8 28.8
11:50 1019 30.09 849 25.07 9.2 48.5 46 -1.8 28.7
11:55 1019 30.09 849 25.07 8.8 47.8 48 -1.5 29.3
12:00 1019 30.09 848 25.04 9.1 48.3 47 -1.7 29
12:05 1019 30.09 848 25.04 8.7 47.7 51 -0.9 30.4
12:10 1019 30.09 848 25.04 8.9 48 49 -1.3 29.6
12:15 1019 30.09 848 25.04 9.7 49.5 46 -1.2 29.8
12:20 1019 30.09 848 25.04 10 49.9 48 -0.5 31.1
12:25 1019 30.09 848 25.04 8.8 47.9 51 -0.7 30.8
12:30 1019 30.09 848 25.04 8.4 47.1 51 -1 30.2
12:35 1019 30.09 848 25.04 9.1 48.3 51 -0.5 31
12:40 1019 30.09 848 25.04 9.2 48.6 50 -0.5 31.1
12:45 1019 30.09 848 25.04 9.6 49.3 48 -0.7 30.8
12:50 1019 30.09 848 25.04 9.6 49.3 50 -0.4 31.4
12:55 1018 30.06 848 25.04 9.6 49.2 48 -0.8 30.6
13:00 1018 30.06 848 25.04 9.4 48.8 49 -0.8 30.5
13:05 1018 30.06 847 25.01 9.1 48.4 49 -0.9 30.3
13:10 1018 30.06 847 25.01 9.3 48.8 49 -0.8 30.5
13:15 1018 30.06 847 25.01 9.8 49.6 48 -0.7 30.8
13:20 1018 30.06 847 25.01 10 50 48 -0.6 31
13:25 1018 30.06 847 25.01 9.9 49.9 49 -0.2 31.6
13:30 1018 30.06 847 25.01 9 48.2 50 -0.7 30.7
13:35 1018 30.06 847 25.01 9.3 48.8 49 -0.9 30.4
13:40 1018 30.06 847 25.01 9.7 49.5 48 -0.6 30.9
13:45 1018 30.06 847 25.01 9.9 49.7 49 -0.4 31.2
13:50 1018 30.06 847 25.01 9.9 49.8 47 -0.8 30.6
13:55 1018 30.06 847 25.01 9.9 49.8 47 -0.7 30.7
14:00 1018 30.06 847 25.01 9.8 49.7 47 -0.9 30.4
14:05 1017 30.03 847 25.01 9.7 49.4 48 -0.8 30.5
14:10 1017 30.03 847 25.01 9.7 49.4 48 -0.8 30.6
14:15 1017 30.03 846 24.98 9.6 49.3 47 -1 30.2
14:20 1017 30.03 846 24.98 9.4 49 49 -0.7 30.8
14:25 1017 30.03 846 24.98 9.6 49.3 48 -0.9 30.4
14:30 1017 30.03 846 24.98 9.6 49.3 48 -0.8 30.5
14:35 1017 30.03 846 24.98 9.8 49.6 47 -0.9 30.3
14:40 1017 30.03 846 24.98 9.7 49.5 48 -0.8 30.6
14:45 1017 30.03 846 24.98 10 49.9 48 -0.5 31
14:50 1017 30.03 846 24.98 9.9 49.7 48 -0.6 31
14:55 1017 30.03 846 24.98 9.4 49 49 -0.6 30.9
15:00 1017 30.03 846 24.98 9.3 48.8 49 -0.7 30.7
15:05 1017 30.03 846 24.98 9.3 48.8 50 -0.6 30.9
15:10 1017 30.03 846 24.98 9.2 48.6 51 -0.3 31.4
15:15 1017 30.03 846 24.98 9.2 48.6 50 -0.6 30.9
15:20 1017 30.03 846 24.98 9.2 48.5 51 -0.4 31.2
15:25 1017 30.03 846 24.98 9 48.3 53 -0.1 31.9
15:30 1017 30.03 846 24.98 9.3 48.7 51 -0.3 31.5
15:35 1017 30.03 846 24.98 9.3 48.8 51 -0.4 31.3
15:40 1016 30 846 24.98 9.3 48.8 51 -0.3 31.5
15:45 1017 30.03 846 24.98 9.4 49 50 -0.4 31.3
15:50 1017 30.03 846 24.98 9.2 48.6 51 -0.4 31.3
15:55 1016 30 846 24.98 9.1 48.3 51 -0.4 31.2
16:00 1016 30 846 24.98 9.1 48.4 51 -0.4 31.2
16:05 1016 30 846 24.98 9.1 48.4 51 -0.3 31.4
16:10 1016 30 846 24.98 9 48.3 52 -0.2 31.7
16:15 1016 30 845 24.95 9 48.2 52 -0.3 31.5
16:20 1016 30 845 24.95 8.9 48 52 -0.5 31.1
16:25 1016 30 845 24.95 8.9 47.9 53 -0.2 31.6
16:30 1016 30 845 24.95 9 48.2 52 -0.2 31.6
16:35 1016 30 845 24.95 8.8 47.9 51 -0.7 30.8
16:40 1016 30 845 24.95 8.6 47.4 52 -0.6 30.9
16:45 1016 30 845 24.95 8.2 46.8 55 -0.3 31.5
16:50 1016 30 845 24.95 8 46.5 54 -0.6 30.9
16:55 1016 30 845 24.95 7.8 46.1 55 -0.6 30.9
17:00 1016 30 845 24.95 7.9 46.2 55 -0.6 31
17:05 1016 30 845 24.95 8 46.5 56 -0.3 31.5
17:10 1016 30 845 24.95 8.1 46.6 56 -0.2 31.7
17:15 1016 30 845 24.95 8.2 46.7 55 -0.2 31.7
17:20 1016 30 845 24.95 8.2 46.7 56 -0.2 31.7
17:25 1016 30 845 24.95 8 46.4 57 -0.1 31.8
17:30 1016 30 845 24.95 7.7 45.9 57 -0.2 31.6
17:35 1016 30 845 24.95 7.8 46 56 -0.4 31.3
17:40 1016 30 845 24.95 7.9 46.1 57 -0.2 31.6
17:45 1016 30 845 24.95 7.8 46.1 56 -0.3 31.4
17:50 1016 30 845 24.95 7.7 45.8 58 -0.1 31.9
17:55 1016 30 845 24.95 7.5 45.5 59 -0 31.9
18:00 1016 30 845 24.95 7.4 45.2 61 0.3 32.5
18:05 1016 30 845 24.95 7.3 45.1 59 -0.2 31.7
18:10 1016 30 845 24.95 7.3 45.1 61 0.2 32.4
18:15 1016 30 845 24.95 7.2 45 61 0.3 32.6
18:20 1016 30 845 24.95 7.3 45.1 63 0.7 33.3
18:25 1016 30 845 24.95 7.1 44.8 64 0.7 33.3
18:30 1016 30 845 24.95 6.9 44.5 63 0.4 32.8
18:35 1016 30 845 24.95 6.9 44.5 66 1 33.7
18:40 1015 29.97 845 24.95 6.7 44 67 1 33.9
18:45 1015 29.97 845 24.95 6.5 43.7 67 0.7 33.3
18:50 1015 29.97 844 24.92 6.5 43.7 67 0.9 33.6
18:55 1015 29.97 844 24.92 6.5 43.7 67 0.8 33.4
19:00 1015 29.97 845 24.95 6.5 43.7 65 0.3 32.6
19:05 1015 29.97 845 24.95 6.5 43.7 67 0.7 33.3
19:10 1015 29.97 845 24.95 6.3 43.4 64 0 32
19:15 1015 29.97 845 24.95 6.4 43.4 63 -0.2 31.7
19:20 1015 29.97 845 24.95 6.4 43.5 65 0.2 32.3
19:25 1015 29.97 844 24.92 6.3 43.3 63 -0.2 31.7
19:30 1015 29.97 844 24.92 6.3 43.4 62 -0.4 31.3
19:35 1015 29.97 845 24.95 6.3 43.3 61 -0.7 30.7
19:40 1015 29.97 845 24.95 6.5 43.7 59 -1 30.2
19:45 1015 29.97 844 24.92 6.7 44 58 -1.1 30.1
19:50 1015 29.97 844 24.92 6.7 44 56 -1.5 29.4
19:55 1015 29.97 844 24.92 6.8 44.2 55 -1.5 29.3
20:00 1015 29.97 844 24.92 6.8 44.3 54 -1.7 28.9
20:05 1015 29.97 844 24.92 6.9 44.5 53 -1.9 28.6
20:10 1015 29.97 844 24.92 6.9 44.4 53 -1.9 28.5
20:15 1015 29.97 844 24.92 6.9 44.3 52 -2.2 28.1
20:20 1015 29.97 844 24.92 6.9 44.5 52 -2.2 28
20:25 1015 29.97 844 24.92 6.9 44.5 52 -2.2 28
20:30 1015 29.97 844 24.92 6.9 44.4 51 -2.4 27.7
20:35 1015 29.97 844 24.92 6.9 44.4 52 -2.3 27.8
20:40 1015 29.97 844 24.92 7 44.6 51 -2.5 27.6
20:45 1015 29.97 844 24.92 7 44.6 52 -2.3 27.9
20:50 1015 29.97 844 24.92 7 44.6 51 -2.3 27.8
20:55 1015 29.97 844 24.92 7 44.6 51 -2.3 27.8
21:00 1015 29.97 844 24.92 6.9 44.5 51 -2.4 27.7
21:05 1015 29.97 844 24.92 6.9 44.4 51 -2.5 27.5
21:10 1014 29.94 844 24.92 6.9 44.4 50 -2.7 27.1
21:15 1014 29.94 844 24.92 6.9 44.4 51 -2.7 27.2
21:20 1014 29.94 843 24.89 6.7 44.1 51 -2.6 27.3
21:25 1014 29.94 843 24.89 6.7 44.1 51 -2.7 27.1
21:30 1014 29.94 843 24.89 6.6 43.9 51 -2.7 27.1
21:35 1014 29.94 843 24.89 6.6 43.8 52 -2.5 27.4
21:40 1014 29.94 843 24.89 6.4 43.6 52 -2.6 27.3
21:45 1014 29.94 844 24.92 6.4 43.5 53 -2.4 27.7
21:50 1014 29.94 844 24.92 6.2 43.2 55 -2.2 28.1
21:55 1014 29.94 844 24.92 6 42.8 57 -1.8 28.8
22:00 1014 29.94 844 24.92 5.8 42.4 60 -1.4 29.5
22:05 1014 29.94 843 24.89 5.6 42.1 61 -1.3 29.7
22:10 1014 29.94 844 24.92 5.5 41.9 63 -1.1 30.1
22:15 1014 29.94 843 24.89 5.4 41.7 64 -0.9 30.5
22:20 1014 29.94 843 24.89 5.2 41.4 65 -0.8 30.6
22:25 1014 29.94 844 24.92 5.1 41.2 65 -0.8 30.6
22:30 1014 29.94 844 24.92 5.1 41.2 67 -0.5 31.1
22:35 1014 29.94 844 24.92 5.1 41.1 67 -0.6 31
22:40 1014 29.94 844 24.92 5.1 41.2 67 -0.5 31
22:45 1014 29.94 844 24.92 5.1 41.2 67 -0.5 31
22:50 1014 29.94 844 24.92 5.1 41.2 66 -0.7 30.8
22:55 1014 29.94 844 24.92 5.1 41.2 67 -0.5 31
23:00 1014 29.94 844 24.92 5.1 41.2 66 -0.6 30.9
23:05 1014 29.94 844 24.92 5.1 41.2 67 -0.6 31
23:10 1014 29.94 844 24.92 5.1 41.2 66 -0.7 30.8
23:15 1014 29.94 844 24.92 5.2 41.3 66 -0.7 30.8
23:20 1014 29.94 843 24.89 5.2 41.4 66 -0.7 30.8
23:25 1014 29.94 844 24.92 5.2 41.3 66 -0.6 31
23:30 1014 29.94 843 24.89 5.1 41.3 66 -0.7 30.8
23:35 1014 29.94 843 24.89 5.1 41.3 66 -0.6 30.9
23:40 1014 29.94 843 24.89 5.1 41.2 67 -0.5 31
23:45 1014 29.94 843 24.89 5.1 41.1 68 -0.4 31.4
23:50 1014 29.94 843 24.89 5 40.9 70 0 32.1
23:55 1014 29.94 843 24.89 4.6 40.4 75 0.6 33
24:00 1014 29.94 843 24.89 4.2 39.6 77 0.5 32.9